sensor_id;sensor_type;location;lat;lon;timestamp;pressure;altitude;pressure_sealevel;temperature;humidity
69879;BME280;57161;43.136;24.706;2022-10-31T00:01:23;99573.56;;;16.90;50.23
69879;BME280;57161;43.136;24.706;2022-10-31T00:03:49;99563.47;;;17.04;49.84
69879;BME280;57161;43.136;24.706;2022-10-31T00:06:15;99563.22;;;17.09;49.51
69879;BME280;57161;43.136;24.706;2022-10-31T00:08:44;99579.16;;;17.15;49.74
69879;BME280;57161;43.136;24.706;2022-10-31T00:11:10;99543.69;;;17.04;49.62
69879;BME280;57161;43.136;24.706;2022-10-31T00:13:36;99571.09;;;17.28;49.42
69879;BME280;57161;43.136;24.706;2022-10-31T00:16:01;99557.56;;;17.27;49.31
69879;BME280;57161;43.136;24.706;2022-10-31T00:18:27;99559.47;;;17.24;49.35
69879;BME280;57161;43.136;24.706;2022-10-31T00:21:00;99574.25;;;17.32;49.38
69879;BME280;57161;43.136;24.706;2022-10-31T00:23:26;99564.38;;;17.24;49.42
69879;BME280;57161;43.136;24.706;2022-10-31T00:25:51;99564.78;;;17.37;49.02
69879;BME280;57161;43.136;24.706;2022-10-31T00:28:17;99563.13;;;17.34;49.01
69879;BME280;57161;43.136;24.706;2022-10-31T00:30:42;99578.50;;;17.41;49.23
69879;BME280;57161;43.136;24.706;2022-10-31T00:33:07;99579.47;;;17.36;49.38
69879;BME280;57161;43.136;24.706;2022-10-31T00:35:33;99553.25;;;17.26;49.07
69879;BME280;57161;43.136;24.706;2022-10-31T00:37:58;99568.44;;;17.30;49.29
69879;BME280;57161;43.136;24.706;2022-10-31T00:40:24;99574.16;;;17.23;49.37
69879;BME280;57161;43.136;24.706;2022-10-31T00:42:49;99583.16;;;17.29;49.59
69879;BME280;57161;43.136;24.706;2022-10-31T00:45:15;99597.59;;;17.33;49.46
69879;BME280;57161;43.136;24.706;2022-10-31T00:47:40;99577.91;;;17.08;49.74
69879;BME280;57161;43.136;24.706;2022-10-31T00:50:06;99595.78;;;17.28;49.80
69879;BME280;57161;43.136;24.706;2022-10-31T00:52:32;99545.44;;;16.99;49.89
69879;BME280;57161;43.136;24.706;2022-10-31T00:54:57;99600.50;;;17.25;49.92
69879;BME280;57161;43.136;24.706;2022-10-31T00:57:23;99585.88;;;17.19;50.05
69879;BME280;57161;43.136;24.706;2022-10-31T00:59:48;99586.63;;;17.20;50.25
69879;BME280;57161;43.136;24.706;2022-10-31T01:02:13;99592.09;;;17.18;50.59
69879;BME280;57161;43.136;24.706;2022-10-31T01:04:39;99576.59;;;17.09;50.37
69879;BME280;57161;43.136;24.706;2022-10-31T01:07:04;99564.38;;;17.06;50.46
69879;BME280;57161;43.136;24.706;2022-10-31T01:09:30;99533.00;;;16.85;50.42
69879;BME280;57161;43.136;24.706;2022-10-31T01:11:55;99565.63;;;17.13;50.28
69879;BME280;57161;43.136;24.706;2022-10-31T01:14:21;99563.72;;;16.98;50.63
69879;BME280;57161;43.136;24.706;2022-10-31T01:16:46;99583.91;;;17.12;50.60
69879;BME280;57161;43.136;24.706;2022-10-31T01:19:12;99586.13;;;17.14;50.65
69879;BME280;57161;43.136;24.706;2022-10-31T01:21:37;99580.50;;;17.14;50.76
69879;BME280;57161;43.136;24.706;2022-10-31T01:24:03;99575.16;;;17.18;50.48
69879;BME280;57161;43.136;24.706;2022-10-31T01:26:30;99567.88;;;17.15;50.33
69879;BME280;57161;43.136;24.706;2022-10-31T01:29:01;99577.72;;;17.23;50.37
69879;BME280;57161;43.136;24.706;2022-10-31T01:31:34;99586.94;;;17.24;50.47
69879;BME280;57161;43.136;24.706;2022-10-31T01:33:59;99576.34;;;17.15;50.59
69879;BME280;57161;43.136;24.706;2022-10-31T01:36:34;99584.81;;;17.15;50.57
69879;BME280;57161;43.136;24.706;2022-10-31T01:39:05;99584.97;;;16.99;50.92
69879;BME280;57161;43.136;24.706;2022-10-31T01:41:35;99597.28;;;17.12;50.77
69879;BME280;57161;43.136;24.706;2022-10-31T01:44:43;99591.09;;;17.05;50.89
69879;BME280;57161;43.136;24.706;2022-10-31T01:46:57;99588.63;;;16.92;51.11
69879;BME280;57161;43.136;24.706;2022-10-31T01:51:58;99597.34;;;17.04;50.98
69879;BME280;57161;43.136;24.706;2022-10-31T01:54:28;99594.50;;;17.04;50.87
69879;BME280;57161;43.136;24.706;2022-10-31T01:56:56;99597.34;;;17.04;50.94
69879;BME280;57161;43.136;24.706;2022-10-31T01:59:24;99592.22;;;17.10;50.86
69879;BME280;57161;43.136;24.706;2022-10-31T02:01:52;99593.53;;;17.09;50.94
69879;BME280;57161;43.136;24.706;2022-10-31T02:04:19;99584.38;;;17.01;50.94
69879;BME280;57161;43.136;24.706;2022-10-31T02:06:51;99591.84;;;17.06;50.91
69879;BME280;57161;43.136;24.706;2022-10-31T02:09:20;99607.81;;;17.11;51.03
69879;BME280;57161;43.136;24.706;2022-10-31T02:11:51;99607.22;;;17.13;50.95
69879;BME280;57161;43.136;24.706;2022-10-31T02:14:28;99592.38;;;17.12;50.83
69879;BME280;57161;43.136;24.706;2022-10-31T02:16:54;99625.75;;;17.23;50.95
69879;BME280;57161;43.136;24.706;2022-10-31T02:19:56;99619.59;;;17.17;50.89
69879;BME280;57161;43.136;24.706;2022-10-31T02:31:12;99621.25;;;17.20;51.17
69879;BME280;57161;43.136;24.706;2022-10-31T02:34:18;99620.50;;;17.20;51.06
69879;BME280;57161;43.136;24.706;2022-10-31T02:44:48;99613.25;;;16.92;51.55
69879;BME280;57161;43.136;24.706;2022-10-31T02:47:16;99625.31;;;16.92;51.71
69879;BME280;57161;43.136;24.706;2022-10-31T02:49:55;99595.56;;;16.49;52.33
69879;BME280;57161;43.136;24.706;2022-10-31T02:52:27;99624.44;;;16.57;52.55
69879;BME280;57161;43.136;24.706;2022-10-31T02:54:53;99631.94;;;16.62;52.59
69879;BME280;57161;43.136;24.706;2022-10-31T02:57:37;99622.31;;;16.40;52.84
69879;BME280;57161;43.136;24.706;2022-10-31T03:00:07;99639.59;;;16.44;53.25
69879;BME280;57161;43.136;24.706;2022-10-31T03:08:33;99644.28;;;16.17;53.90
69879;BME280;57161;43.136;24.706;2022-10-31T03:11:03;99629.91;;;15.98;54.24
69879;BME280;57161;43.136;24.706;2022-10-31T03:19:15;99653.56;;;16.02;54.52
69879;BME280;57161;43.136;24.706;2022-10-31T03:21:49;99655.09;;;15.96;54.82
69879;BME280;57161;43.136;24.706;2022-10-31T03:24:18;99644.78;;;15.90;54.83
69879;BME280;57161;43.136;24.706;2022-10-31T03:26:49;99630.91;;;15.85;54.73
69879;BME280;57161;43.136;24.706;2022-10-31T03:29:17;99654.94;;;15.86;54.94
69879;BME280;57161;43.136;24.706;2022-10-31T03:31:49;99638.69;;;15.69;55.05
69879;BME280;57161;43.136;24.706;2022-10-31T03:34:16;99644.25;;;15.77;55.05
69879;BME280;57161;43.136;24.706;2022-10-31T03:36:44;99639.59;;;15.79;55.15
69879;BME280;57161;43.136;24.706;2022-10-31T03:39:14;99635.13;;;15.61;55.34
69879;BME280;57161;43.136;24.706;2022-10-31T03:41:47;99650.28;;;15.73;55.38
69879;BME280;57161;43.136;24.706;2022-10-31T03:44:17;99635.31;;;15.55;55.39
69879;BME280;57161;43.136;24.706;2022-10-31T03:46:44;99657.28;;;15.65;55.82
69879;BME280;57161;43.136;24.706;2022-10-31T03:49:10;99635.19;;;15.38;55.66
69879;BME280;57161;43.136;24.706;2022-10-31T03:51:44;99647.59;;;15.35;55.97
69879;BME280;57161;43.136;24.706;2022-10-31T03:54:42;99657.53;;;15.28;56.38
69879;BME280;57161;43.136;24.706;2022-10-31T03:57:21;99661.31;;;15.16;56.71
69879;BME280;57161;43.136;24.706;2022-10-31T04:00:15;99652.69;;;15.14;56.79
69879;BME280;57161;43.136;24.706;2022-10-31T04:02:47;99658.69;;;15.10;56.95
69879;BME280;57161;43.136;24.706;2022-10-31T04:05:15;99644.28;;;14.91;57.10
69879;BME280;57161;43.136;24.706;2022-10-31T04:07:46;99628.91;;;14.77;57.07
69879;BME280;57161;43.136;24.706;2022-10-31T04:10:13;99673.53;;;14.88;57.52
69879;BME280;57161;43.136;24.706;2022-10-31T04:12:42;99670.16;;;14.89;57.64
69879;BME280;57161;43.136;24.706;2022-10-31T04:15:10;99656.84;;;14.67;57.77
69879;BME280;57161;43.136;24.706;2022-10-31T04:17:38;99672.78;;;14.80;57.85
69879;BME280;57161;43.136;24.706;2022-10-31T04:20:06;99675.22;;;14.76;58.14
69879;BME280;57161;43.136;24.706;2022-10-31T04:22:31;99658.88;;;14.59;58.12
69879;BME280;57161;43.136;24.706;2022-10-31T04:24:57;99681.75;;;14.63;58.42
69879;BME280;57161;43.136;24.706;2022-10-31T04:27:22;99677.25;;;14.60;58.51
69879;BME280;57161;43.136;24.706;2022-10-31T04:29:48;99678.75;;;14.53;58.74
69879;BME280;57161;43.136;24.706;2022-10-31T04:32:13;99679.84;;;14.42;59.00
69879;BME280;57161;43.136;24.706;2022-10-31T04:34:39;99676.09;;;14.32;59.06
69879;BME280;57161;43.136;24.706;2022-10-31T04:37:04;99678.47;;;14.21;59.41
69879;BME280;57161;43.136;24.706;2022-10-31T04:39:30;99697.22;;;14.26;59.72
69879;BME280;57161;43.136;24.706;2022-10-31T04:41:55;99668.31;;;14.02;59.79
69879;BME280;57161;43.136;24.706;2022-10-31T04:44:21;99666.81;;;14.09;59.78
69879;BME280;57161;43.136;24.706;2022-10-31T04:46:46;99679.59;;;14.18;59.93
69879;BME280;57161;43.136;24.706;2022-10-31T04:49:12;99690.28;;;14.19;60.08
69879;BME280;57161;43.136;24.706;2022-10-31T04:51:37;99696.47;;;14.25;59.95
69879;BME280;57161;43.136;24.706;2022-10-31T04:54:03;99706.59;;;14.28;59.79
69879;BME280;57161;43.136;24.706;2022-10-31T04:56:28;99708.09;;;14.29;59.83
69879;BME280;57161;43.136;24.706;2022-10-31T04:58:54;99701.91;;;14.23;59.84
69879;BME280;57161;43.136;24.706;2022-10-31T05:01:19;99719.75;;;14.33;59.79
69879;BME280;57161;43.136;24.706;2022-10-31T05:03:44;99722.56;;;14.33;59.70
69879;BME280;57161;43.136;24.706;2022-10-31T05:06:10;99711.66;;;14.22;59.68
69879;BME280;57161;43.136;24.706;2022-10-31T05:08:35;99725.50;;;14.20;59.70
69879;BME280;57161;43.136;24.706;2022-10-31T05:11:02;99693.19;;;13.98;60.01
69879;BME280;57161;43.136;24.706;2022-10-31T05:13:28;99713.09;;;14.08;60.10
69879;BME280;57161;43.136;24.706;2022-10-31T05:15:53;99734.50;;;14.19;60.28
69879;BME280;57161;43.136;24.706;2022-10-31T05:18:19;99731.50;;;14.24;60.11
69879;BME280;57161;43.136;24.706;2022-10-31T05:20:44;99727.56;;;14.20;60.00
69879;BME280;57161;43.136;24.706;2022-10-31T05:23:10;99709.28;;;13.98;60.18
69879;BME280;57161;43.136;24.706;2022-10-31T05:25:35;99726.59;;;14.09;59.92
69879;BME280;57161;43.136;24.706;2022-10-31T05:28:00;99727.53;;;14.12;60.03
69879;BME280;57161;43.136;24.706;2022-10-31T05:30:28;99733.94;;;14.20;59.86
69879;BME280;57161;43.136;24.706;2022-10-31T05:32:55;99727.72;;;14.14;60.10
69879;BME280;57161;43.136;24.706;2022-10-31T05:35:23;99730.94;;;14.18;60.16
69879;BME280;57161;43.136;24.706;2022-10-31T05:37:49;99712.31;;;14.00;59.91
69879;BME280;57161;43.136;24.706;2022-10-31T05:40:16;99749.50;;;14.21;59.85
69879;BME280;57161;43.136;24.706;2022-10-31T05:42:42;99759.59;;;14.17;60.05
69879;BME280;57161;43.136;24.706;2022-10-31T05:45:10;99746.25;;;14.09;60.17
69879;BME280;57161;43.136;24.706;2022-10-31T05:47:35;99753.41;;;14.18;59.80
69879;BME280;57161;43.136;24.706;2022-10-31T05:50:01;99732.38;;;14.04;60.21
69879;BME280;57161;43.136;24.706;2022-10-31T05:52:27;99742.38;;;14.20;60.07
69879;BME280;57161;43.136;24.706;2022-10-31T05:54:52;99759.81;;;14.26;60.09
69879;BME280;57161;43.136;24.706;2022-10-31T05:57:17;99740.69;;;14.17;59.98
69879;BME280;57161;43.136;24.706;2022-10-31T05:59:44;99755.88;;;14.29;59.90
69879;BME280;57161;43.136;24.706;2022-10-31T06:02:10;99732.06;;;14.23;59.61
69879;BME280;57161;43.136;24.706;2022-10-31T06:04:35;99745.38;;;14.30;59.47
69879;BME280;57161;43.136;24.706;2022-10-31T06:07:01;99759.84;;;14.41;59.44
69879;BME280;57161;43.136;24.706;2022-10-31T06:09:26;99761.44;;;14.50;59.38
69879;BME280;57161;43.136;24.706;2022-10-31T06:11:52;99760.69;;;14.57;59.50
69879;BME280;57161;43.136;24.706;2022-10-31T06:14:17;99769.53;;;14.69;59.26
69879;BME280;57161;43.136;24.706;2022-10-31T06:16:43;99758.25;;;14.61;59.03
69879;BME280;57161;43.136;24.706;2022-10-31T06:19:08;99730.09;;;14.46;58.67
69879;BME280;57161;43.136;24.706;2022-10-31T06:21:34;99759.94;;;14.57;59.00
69879;BME280;57161;43.136;24.706;2022-10-31T06:23:59;99753.34;;;14.47;58.96
69879;BME280;57161;43.136;24.706;2022-10-31T06:26:25;99764.44;;;14.52;58.92
69879;BME280;57161;43.136;24.706;2022-10-31T06:28:50;99764.59;;;14.47;59.02
69879;BME280;57161;43.136;24.706;2022-10-31T06:31:15;99787.69;;;14.60;59.33
69879;BME280;57161;43.136;24.706;2022-10-31T06:33:42;99784.91;;;14.68;59.49
69879;BME280;57161;43.136;24.706;2022-10-31T06:36:08;99788.31;;;14.82;59.01
69879;BME280;57161;43.136;24.706;2022-10-31T06:38:34;99784.75;;;14.96;58.83
69879;BME280;57161;43.136;24.706;2022-10-31T06:41:03;99785.53;;;15.20;58.31
69879;BME280;57161;43.136;24.706;2022-10-31T06:43:29;99776.91;;;15.33;57.56
69879;BME280;57161;43.136;24.706;2022-10-31T06:45:55;99786.47;;;15.53;57.33
69879;BME280;57161;43.136;24.706;2022-10-31T06:48:20;99764.88;;;15.55;56.79
69879;BME280;57161;43.136;24.706;2022-10-31T06:50:46;99782.88;;;15.83;56.68
69879;BME280;57161;43.136;24.706;2022-10-31T06:53:11;99789.00;;;16.04;56.09
69879;BME280;57161;43.136;24.706;2022-10-31T06:55:40;99787.25;;;16.24;55.60
69879;BME280;57161;43.136;24.706;2022-10-31T06:58:06;99796.97;;;16.38;55.55
69879;BME280;57161;43.136;24.706;2022-10-31T07:00:33;99792.06;;;16.46;55.24
69879;BME280;57161;43.136;24.706;2022-10-31T07:03:04;99793.28;;;16.68;54.63
69879;BME280;57161;43.136;24.706;2022-10-31T07:05:30;99785.25;;;16.90;54.30
69879;BME280;57161;43.136;24.706;2022-10-31T07:07:57;99785.13;;;17.05;54.02
69879;BME280;57161;43.136;24.706;2022-10-31T07:10:24;99786.00;;;17.15;54.03
69879;BME280;57161;43.136;24.706;2022-10-31T07:12:58;99783.16;;;17.40;53.85
69879;BME280;57161;43.136;24.706;2022-10-31T07:15:25;99777.03;;;17.51;52.90
69879;BME280;57161;43.136;24.706;2022-10-31T07:17:50;99767.69;;;17.66;52.85
69879;BME280;57161;43.136;24.706;2022-10-31T07:20:16;99762.56;;;17.89;52.23
69879;BME280;57161;43.136;24.706;2022-10-31T07:22:41;99774.44;;;18.22;51.43
69879;BME280;57161;43.136;24.706;2022-10-31T07:25:07;99762.34;;;18.39;51.14
69879;BME280;57161;43.136;24.706;2022-10-31T07:27:41;99780.69;;;18.65;50.60
69879;BME280;57161;43.136;24.706;2022-10-31T07:30:08;99774.53;;;18.86;50.24
69879;BME280;57161;43.136;24.706;2022-10-31T07:32:38;99788.22;;;19.07;49.63
69879;BME280;57161;43.136;24.706;2022-10-31T07:35:05;99783.22;;;19.25;48.90
69879;BME280;57161;43.136;24.706;2022-10-31T07:37:31;99785.66;;;19.38;48.97
69879;BME280;57161;43.136;24.706;2022-10-31T07:39:56;99774.13;;;19.36;48.11
69879;BME280;57161;43.136;24.706;2022-10-31T07:42:22;99789.59;;;19.62;47.59
69879;BME280;57161;43.136;24.706;2022-10-31T07:44:47;99797.97;;;19.69;47.56
69879;BME280;57161;43.136;24.706;2022-10-31T07:47:13;99796.63;;;19.70;47.59
69879;BME280;57161;43.136;24.706;2022-10-31T07:49:38;99771.41;;;19.65;47.09
69879;BME280;57161;43.136;24.706;2022-10-31T07:52:03;99741.34;;;19.52;46.91
69879;BME280;57161;43.136;24.706;2022-10-31T07:54:29;99780.09;;;19.86;46.87
69879;BME280;57161;43.136;24.706;2022-10-31T07:56:55;99768.59;;;19.94;46.46
69879;BME280;57161;43.136;24.706;2022-10-31T07:59:20;99800.69;;;20.06;46.44
69879;BME280;57161;43.136;24.706;2022-10-31T08:01:45;99778.91;;;20.08;46.57
69879;BME280;57161;43.136;24.706;2022-10-31T08:04:11;99787.09;;;20.24;46.54
69879;BME280;57161;43.136;24.706;2022-10-31T08:06:36;99792.59;;;20.31;46.26
69879;BME280;57161;43.136;24.706;2022-10-31T08:09:02;99776.03;;;20.37;46.04
69879;BME280;57161;43.136;24.706;2022-10-31T08:11:27;99778.72;;;20.55;45.38
69879;BME280;57161;43.136;24.706;2022-10-31T08:13:53;99776.03;;;20.57;45.66
69879;BME280;57161;43.136;24.706;2022-10-31T08:16:18;99757.06;;;20.40;45.43
69879;BME280;57161;43.136;24.706;2022-10-31T08:18:44;99767.09;;;20.51;45.66
69879;BME280;57161;43.136;24.706;2022-10-31T08:21:09;99776.75;;;20.67;45.78
69879;BME280;57161;43.136;24.706;2022-10-31T08:23:35;99783.28;;;20.79;45.54
69879;BME280;57161;43.136;24.706;2022-10-31T08:26:01;99763.41;;;20.79;45.24
69879;BME280;57161;43.136;24.706;2022-10-31T08:28:26;99778.59;;;20.93;44.83
69879;BME280;57161;43.136;24.706;2022-10-31T08:30:51;99774.41;;;21.04;44.69
69879;BME280;57161;43.136;24.706;2022-10-31T08:33:18;99761.69;;;21.05;44.49
69879;BME280;57161;43.136;24.706;2022-10-31T08:35:44;99774.19;;;21.12;44.16
69879;BME280;57161;43.136;24.706;2022-10-31T08:38:11;99750.91;;;21.04;44.58
69879;BME280;57161;43.136;24.706;2022-10-31T08:40:37;99777.88;;;21.24;44.41
69879;BME280;57161;43.136;24.706;2022-10-31T08:43:11;99761.44;;;21.22;44.38
69879;BME280;57161;43.136;24.706;2022-10-31T08:45:37;99781.91;;;21.31;44.07
69879;BME280;57161;43.136;24.706;2022-10-31T08:48:04;99775.78;;;21.34;44.04
69879;BME280;57161;43.136;24.706;2022-10-31T08:50:32;99780.00;;;21.54;43.85
69879;BME280;57161;43.136;24.706;2022-10-31T08:53:07;99791.09;;;21.72;43.36
69879;BME280;57161;43.136;24.706;2022-10-31T08:55:34;99790.00;;;21.77;43.33
69879;BME280;57161;43.136;24.706;2022-10-31T08:58:01;99775.94;;;21.79;43.09
69879;BME280;57161;43.136;24.706;2022-10-31T09:00:27;99781.34;;;21.96;42.92
69879;BME280;57161;43.136;24.706;2022-10-31T09:03:22;99778.66;;;21.98;42.68
69879;BME280;57161;43.136;24.706;2022-10-31T09:05:45;99781.97;;;22.16;42.42
69879;BME280;57161;43.136;24.706;2022-10-31T09:08:11;99771.47;;;21.97;42.34
69879;BME280;57161;43.136;24.706;2022-10-31T09:10:37;99784.53;;;22.12;42.24
69879;BME280;57161;43.136;24.706;2022-10-31T09:13:11;99766.03;;;22.01;42.42
69879;BME280;57161;43.136;24.706;2022-10-31T09:15:40;99780.56;;;22.05;42.83
69879;BME280;57161;43.136;24.706;2022-10-31T09:18:06;99763.00;;;21.87;42.63
69879;BME280;57161;43.136;24.706;2022-10-31T09:20:33;99784.88;;;22.06;42.82
69879;BME280;57161;43.136;24.706;2022-10-31T09:23:04;99782.72;;;22.16;42.51
69879;BME280;57161;43.136;24.706;2022-10-31T09:25:30;99781.75;;;22.24;42.67
69879;BME280;57161;43.136;24.706;2022-10-31T09:27:57;99743.50;;;22.15;41.97
69879;BME280;57161;43.136;24.706;2022-10-31T09:30:24;99772.19;;;22.52;42.15
69879;BME280;57161;43.136;24.706;2022-10-31T09:33:00;99760.69;;;22.50;41.84
69879;BME280;57161;43.136;24.706;2022-10-31T09:35:27;99776.44;;;22.74;41.63
69879;BME280;57161;43.136;24.706;2022-10-31T09:38:08;99775.19;;;22.66;41.61
69879;BME280;57161;43.136;24.706;2022-10-31T09:50:46;99777.47;;;22.91;40.96
69879;BME280;57161;43.136;24.706;2022-10-31T09:53:24;99766.34;;;22.95;40.80
69879;BME280;57161;43.136;24.706;2022-10-31T09:55:51;99747.34;;;22.76;40.95
69879;BME280;57161;43.136;24.706;2022-10-31T09:58:24;99765.31;;;22.79;41.21
69879;BME280;57161;43.136;24.706;2022-10-31T10:00:51;99755.75;;;22.62;41.39
69879;BME280;57161;43.136;24.706;2022-10-31T10:05:54;99764.88;;;22.49;41.56
69879;BME280;57161;43.136;24.706;2022-10-31T10:08:28;99753.84;;;22.43;41.56
69879;BME280;57161;43.136;24.706;2022-10-31T10:16:40;99745.47;;;22.69;41.28
69879;BME280;57161;43.136;24.706;2022-10-31T10:22:29;99749.56;;;22.77;41.28
69879;BME280;57161;43.136;24.706;2022-10-31T10:30:51;99741.31;;;23.05;41.14
69879;BME280;57161;43.136;24.706;2022-10-31T10:33:24;99744.63;;;23.36;40.70
69879;BME280;57161;43.136;24.706;2022-10-31T10:35:57;99733.69;;;23.68;39.50
69879;BME280;57161;43.136;24.706;2022-10-31T10:38:33;99733.16;;;23.83;39.29
69879;BME280;57161;43.136;24.706;2022-10-31T10:41:01;99742.13;;;23.78;39.08
69879;BME280;57161;43.136;24.706;2022-10-31T10:43:33;99739.38;;;23.80;39.16
69879;BME280;57161;43.136;24.706;2022-10-31T10:54:39;99725.47;;;23.74;38.74
69879;BME280;57161;43.136;24.706;2022-10-31T10:57:22;99732.81;;;23.77;38.82
69879;BME280;57161;43.136;24.706;2022-10-31T10:59:52;99708.13;;;23.70;38.47
69879;BME280;57161;43.136;24.706;2022-10-31T11:02:26;99724.59;;;23.83;38.39
69879;BME280;57161;43.136;24.706;2022-10-31T11:04:57;99715.88;;;23.93;38.43
69879;BME280;57161;43.136;24.706;2022-10-31T11:07:23;99718.28;;;23.73;38.73
69879;BME280;57161;43.136;24.706;2022-10-31T11:09:49;99725.03;;;23.91;39.01
69879;BME280;57161;43.136;24.706;2022-10-31T11:12:34;99722.03;;;24.01;38.30
69879;BME280;57161;43.136;24.706;2022-10-31T11:15:15;99725.28;;;23.95;38.52
69879;BME280;57161;43.136;24.706;2022-10-31T11:17:42;99720.66;;;24.02;38.94
69879;BME280;57161;43.136;24.706;2022-10-31T11:22:43;99720.41;;;24.35;38.09
69879;BME280;57161;43.136;24.706;2022-10-31T11:25:27;99707.44;;;24.46;37.55
69879;BME280;57161;43.136;24.706;2022-10-31T11:28:05;99702.56;;;24.48;37.84
69879;BME280;57161;43.136;24.706;2022-10-31T11:30:36;99718.78;;;24.58;37.89
69879;BME280;57161;43.136;24.706;2022-10-31T11:33:19;99710.53;;;24.64;37.33
69879;BME280;57161;43.136;24.706;2022-10-31T11:35:46;99700.41;;;24.74;37.44
69879;BME280;57161;43.136;24.706;2022-10-31T11:38:19;99708.03;;;24.97;36.88
69879;BME280;57161;43.136;24.706;2022-10-31T11:41:18;99699.91;;;25.05;37.14
69879;BME280;57161;43.136;24.706;2022-10-31T11:43:52;99698.56;;;25.06;36.74
69879;BME280;57161;43.136;24.706;2022-10-31T11:46:35;99683.94;;;25.00;36.89
69879;BME280;57161;43.136;24.706;2022-10-31T11:49:03;99683.28;;;25.16;36.66
69879;BME280;57161;43.136;24.706;2022-10-31T11:51:32;99708.19;;;25.27;36.35
69879;BME280;57161;43.136;24.706;2022-10-31T11:53:59;99696.50;;;24.95;36.96
69879;BME280;57161;43.136;24.706;2022-10-31T11:56:27;99701.25;;;24.77;37.29
69879;BME280;57161;43.136;24.706;2022-10-31T11:59:04;99693.00;;;24.83;36.78
69879;BME280;57161;43.136;24.706;2022-10-31T12:01:32;99698.28;;;24.89;37.11
69879;BME280;57161;43.136;24.706;2022-10-31T12:04:07;99681.66;;;24.71;37.23
69879;BME280;57161;43.136;24.706;2022-10-31T12:06:41;99689.72;;;24.89;36.90
69879;BME280;57161;43.136;24.706;2022-10-31T12:17:34;99689.66;;;25.00;36.83
69879;BME280;57161;43.136;24.706;2022-10-31T12:23:00;99693.34;;;25.03;36.63
69879;BME280;57161;43.136;24.706;2022-10-31T12:25:45;99690.06;;;24.95;36.95
69879;BME280;57161;43.136;24.706;2022-10-31T12:28:55;99682.41;;;24.99;37.03
69879;BME280;57161;43.136;24.706;2022-10-31T12:42:58;99688.28;;;25.01;37.03
69879;BME280;57161;43.136;24.706;2022-10-31T12:45:49;99687.97;;;25.09;36.81
69879;BME280;57161;43.136;24.706;2022-10-31T12:48:38;99682.03;;;25.05;36.95
69879;BME280;57161;43.136;24.706;2022-10-31T13:01:38;99676.41;;;25.21;36.40
69879;BME280;57161;43.136;24.706;2022-10-31T13:06:46;99667.31;;;25.24;36.36
69879;BME280;57161;43.136;24.706;2022-10-31T13:09:17;99678.50;;;25.34;36.18
69879;BME280;57161;43.136;24.706;2022-10-31T13:11:58;99679.69;;;25.29;36.17
69879;BME280;57161;43.136;24.706;2022-10-31T13:14:40;99692.19;;;25.22;35.98
69879;BME280;57161;43.136;24.706;2022-10-31T13:17:13;99671.97;;;25.04;36.55
69879;BME280;57161;43.136;24.706;2022-10-31T13:19:44;99677.56;;;25.16;36.59
69879;BME280;57161;43.136;24.706;2022-10-31T13:22:24;99688.16;;;25.27;36.51
69879;BME280;57161;43.136;24.706;2022-10-31T13:24:59;99681.28;;;25.18;36.58
69879;BME280;57161;43.136;24.706;2022-10-31T13:27:30;99677.69;;;25.04;36.65
69879;BME280;57161;43.136;24.706;2022-10-31T13:30:23;99682.75;;;25.05;36.70
69879;BME280;57161;43.136;24.706;2022-10-31T13:33:11;99691.47;;;25.07;36.47
69879;BME280;57161;43.136;24.706;2022-10-31T13:35:52;99689.84;;;25.04;36.14
69879;BME280;57161;43.136;24.706;2022-10-31T13:48:59;99679.84;;;24.64;37.16
69879;BME280;57161;43.136;24.706;2022-10-31T13:51:30;99680.06;;;24.68;37.04
69879;BME280;57161;43.136;24.706;2022-10-31T13:53:57;99686.53;;;24.69;37.28
69879;BME280;57161;43.136;24.706;2022-10-31T13:56:28;99685.03;;;24.68;37.38
69879;BME280;57161;43.136;24.706;2022-10-31T14:01:36;99669.59;;;24.59;37.65
69879;BME280;57161;43.136;24.706;2022-10-31T14:04:05;99682.09;;;24.66;37.59
69879;BME280;57161;43.136;24.706;2022-10-31T14:06:38;99690.34;;;24.60;37.47
69879;BME280;57161;43.136;24.706;2022-10-31T14:09:05;99676.97;;;24.50;37.48
69879;BME280;57161;43.136;24.706;2022-10-31T14:11:31;99683.53;;;24.53;37.59
69879;BME280;57161;43.136;24.706;2022-10-31T14:13:57;99680.16;;;24.43;37.94
69879;BME280;57161;43.136;24.706;2022-10-31T14:16:30;99682.44;;;24.33;38.05
69879;BME280;57161;43.136;24.706;2022-10-31T14:19:08;99682.97;;;24.29;37.93
69879;BME280;57161;43.136;24.706;2022-10-31T14:21:41;99678.50;;;24.26;38.34
69879;BME280;57161;43.136;24.706;2022-10-31T14:29:27;99677.84;;;24.02;38.72
69879;BME280;57161;43.136;24.706;2022-10-31T14:31:54;99678.59;;;24.03;38.72
69879;BME280;57161;43.136;24.706;2022-10-31T14:34:25;99681.56;;;24.05;38.53
69879;BME280;57161;43.136;24.706;2022-10-31T14:37:14;99689.16;;;24.00;38.67
69879;BME280;57161;43.136;24.706;2022-10-31T14:48:38;99687.19;;;23.65;40.36
69879;BME280;57161;43.136;24.706;2022-10-31T14:51:18;99681.91;;;23.60;40.55
69879;BME280;57161;43.136;24.706;2022-10-31T14:53:55;99683.03;;;23.43;41.08
69879;BME280;57161;43.136;24.706;2022-10-31T14:56:27;99672.63;;;23.24;41.46
69879;BME280;57161;43.136;24.706;2022-10-31T14:58:55;99664.13;;;23.13;41.61
69879;BME280;57161;43.136;24.706;2022-10-31T15:01:25;99682.44;;;23.10;41.98
69879;BME280;57161;43.136;24.706;2022-10-31T15:03:52;99688.06;;;22.96;42.46
69879;BME280;57161;43.136;24.706;2022-10-31T15:06:21;99676.88;;;22.76;42.36
69879;BME280;57161;43.136;24.706;2022-10-31T15:08:52;99671.66;;;22.61;42.55
69879;BME280;57161;43.136;24.706;2022-10-31T15:11:22;99693.19;;;22.53;42.95
69879;BME280;57161;43.136;24.706;2022-10-31T15:13:57;99687.25;;;22.37;43.43
69879;BME280;57161;43.136;24.706;2022-10-31T15:16:42;99671.72;;;22.16;43.76